Time;durP1;ratioP1;P1;durP2;ratioP2;P2;SDS_P1;SDS_P2;PMS_P1;PMS_P2;Temp;Humidity;BMP_temperature;BMP_pressure;BME280_temperature;BME280_humidity;BME280_pressure;Samples;Min_cycle;Max_cycle;Signal;HPM_P1;HPM_P2
2023/06/16 00:01:31;;;;;;;6.03;4.73;;;;;;;;;;5119249;28;20237;-64
2023/06/16 00:04:00;;;;;;;8.27;4.90;;;;;;;;;;5119822;28;20202;-64
2023/06/16 00:06:29;;;;;;;5.37;4.57;;;;;;;;;;5119345;28;20226;-64
2023/06/16 00:08:57;;;;;;;6.40;4.83;;;;;;;;;;5114389;27;20228;-64
2023/06/16 00:11:27;;;;;;;5.13;4.73;;;;;;;;;;5103443;28;20209;-64
2023/06/16 00:13:57;;;;;;;6.60;5.20;;;;;;;;;;5119457;28;20236;-64
2023/06/16 00:16:26;;;;;;;5.43;4.93;;;;;;;;;;5118931;28;20316;-64
2023/06/16 00:18:57;;;;;;;5.77;5.27;;;;;;;;;;5118786;28;20208;-64
2023/06/16 00:21:27;;;;;;;7.20;5.37;;;;;;;;;;5119138;27;20203;-64
2023/06/16 00:23:55;;;;;;;6.23;5.60;;;;;;;;;;5119015;28;20201;-64
2023/06/16 00:26:24;;;;;;;7.60;4.80;;;;;;;;;;5118802;28;20218;-64
2023/06/16 00:28:52;;;;;;;5.47;4.87;;;;;;;;;;5119277;28;20204;-64
2023/06/16 00:31:22;;;;;;;5.53;4.90;;;;;;;;;;5118837;28;20209;-64
2023/06/16 00:33:50;;;;;;;6.57;5.03;;;;;;;;;;5118735;28;20247;-64
2023/06/16 00:36:18;;;;;;;8.10;4.97;;;;;;;;;;5118607;28;20236;-64
2023/06/16 00:38:46;;;;;;;6.17;5.27;;;;;;;;;;5118454;28;20272;-64
2023/06/16 00:41:14;;;;;;;5.07;4.67;;;;;;;;;;5118636;28;20651;-64
2023/06/16 00:43:43;;;;;;;5.83;5.17;;;;;;;;;;5118605;28;20274;-64
2023/06/16 00:46:13;;;;;;;5.87;5.27;;;;;;;;;;5118346;28;20591;-64
2023/06/16 00:48:42;;;;;;;5.87;5.10;;;;;;;;;;5116803;28;20197;-64
2023/06/16 00:51:11;;;;;;;8.77;5.33;;;;;;;;;;5114458;28;20212;-64
2023/06/16 00:53:40;;;;;;;7.57;4.47;;;;;;;;;;5117914;28;20236;-64
2023/06/16 00:56:08;;;;;;;5.73;5.03;;;;;;;;;;5113740;28;20232;-64
2023/06/16 00:58:37;;;;;;;6.03;5.30;;;;;;;;;;5118612;28;20197;-64
2023/06/16 01:01:06;;;;;;;11.33;5.63;;;;;;;;;;5118021;28;20568;-64
2023/06/16 01:03:35;;;;;;;5.90;5.30;;;;;;;;;;5118198;28;20567;-64
2023/06/16 01:06:07;;;;;;;5.70;5.03;;;;;;;;;;5118113;28;20216;-64
2023/06/16 01:08:43;;;;;;;6.50;5.80;;;;;;;;;;5118237;28;20239;-64
2023/06/16 01:11:14;;;;;;;5.20;4.70;;;;;;;;;;5116345;28;20200;-65
2023/06/16 01:13:47;;;;;;;9.80;5.33;;;;;;;;;;5118285;28;20283;-64
2023/06/16 01:16:18;;;;;;;6.33;4.93;;;;;;;;;;5117579;28;20235;-64
2023/06/16 01:18:48;;;;;;;5.43;4.93;;;;;;;;;;5118216;28;20575;-64
2023/06/16 01:21:23;;;;;;;8.67;5.20;;;;;;;;;;5118557;28;20211;-64
2023/06/16 01:23:58;;;;;;;6.27;4.97;;;;;;;;;;5118388;28;20272;-64
2023/06/16 01:26:28;;;;;;;5.70;5.20;;;;;;;;;;5118278;28;20227;-64
2023/06/16 01:28:58;;;;;;;6.83;5.03;;;;;;;;;;5118352;28;20200;-64
2023/06/16 01:31:29;;;;;;;5.57;5.07;;;;;;;;;;5117762;28;20205;-64
2023/06/16 01:33:57;;;;;;;5.23;4.60;;;;;;;;;;5104977;28;20292;-64
2023/06/16 01:36:28;;;;;;;5.93;5.33;;;;;;;;;;5109355;28;20236;-64
2023/06/16 01:38:59;;;;;;;5.73;5.17;;;;;;;;;;5120389;28;20742;-64
2023/06/16 01:41:27;;;;;;;5.77;5.20;;;;;;;;;;5138212;27;20208;-64
2023/06/16 01:43:57;;;;;;;6.90;5.30;;;;;;;;;;5104059;28;20217;-64
2023/06/16 01:46:26;;;;;;;7.37;5.33;;;;;;;;;;5112050;28;20273;-64
2023/06/16 01:48:54;;;;;;;6.10;5.50;;;;;;;;;;5117926;28;20288;-64
2023/06/16 01:51:22;;;;;;;6.50;5.00;;;;;;;;;;5108439;28;20205;-64
2023/06/16 01:53:51;;;;;;;5.90;5.10;;;;;;;;;;5137801;27;20259;-64
2023/06/16 01:56:20;;;;;;;5.93;4.97;;;;;;;;;;5114139;27;20700;-64
2023/06/16 01:58:49;;;;;;;5.20;4.70;;;;;;;;;;5117864;28;20296;-64
2023/06/16 02:01:19;;;;;;;5.73;4.83;;;;;;;;;;5115935;28;20610;-63
2023/06/16 02:03:49;;;;;;;5.83;4.70;;;;;;;;;;5106967;28;20632;-63
2023/06/16 02:06:20;;;;;;;6.87;5.43;;;;;;;;;;5108603;28;20224;-63
2023/06/16 02:08:49;;;;;;;10.50;5.50;;;;;;;;;;5114868;28;20236;-63
2023/06/16 02:11:17;;;;;;;6.00;5.10;;;;;;;;;;5117761;28;20552;-63
2023/06/16 02:13:47;;;;;;;7.27;5.40;;;;;;;;;;5117815;28;20212;-63
2023/06/16 02:16:20;;;;;;;5.60;5.07;;;;;;;;;;5117033;28;20359;-63
2023/06/16 02:18:56;;;;;;;7.53;5.17;;;;;;;;;;5117622;28;20247;-62
2023/06/16 02:21:24;;;;;;;5.63;5.03;;;;;;;;;;5117512;28;20583;-63
2023/06/16 02:23:52;;;;;;;5.87;4.87;;;;;;;;;;5117514;28;20268;-63
2023/06/16 02:26:21;;;;;;;5.87;5.23;;;;;;;;;;5117410;28;20696;-63
2023/06/16 02:28:51;;;;;;;5.13;4.63;;;;;;;;;;5117625;28;20204;-63
2023/06/16 02:31:19;;;;;;;7.47;5.33;;;;;;;;;;5117138;28;20201;-63
2023/06/16 02:33:49;;;;;;;6.40;5.13;;;;;;;;;;5117223;28;20211;-63
2023/06/16 02:36:17;;;;;;;5.93;5.33;;;;;;;;;;5115833;28;20233;-63
2023/06/16 02:38:46;;;;;;;6.33;5.27;;;;;;;;;;5104432;28;20652;-64
2023/06/16 02:41:14;;;;;;;5.00;4.57;;;;;;;;;;5114918;28;20216;-64
2023/06/16 02:43:42;;;;;;;7.33;4.90;;;;;;;;;;5105162;28;20294;-64
2023/06/16 02:46:12;;;;;;;7.37;5.10;;;;;;;;;;5136027;27;20307;-64
2023/06/16 02:48:40;;;;;;;5.97;4.90;;;;;;;;;;5126362;27;20229;-64
2023/06/16 02:51:08;;;;;;;9.67;5.00;;;;;;;;;;5121258;28;20219;-64
2023/06/16 02:53:38;;;;;;;6.80;4.73;;;;;;;;;;5119660;28;20718;-64
2023/06/16 02:56:07;;;;;;;5.33;4.80;;;;;;;;;;5120970;28;20227;-65
2023/06/16 02:58:38;;;;;;;5.53;5.00;;;;;;;;;;5120493;28;20229;-64
2023/06/16 03:01:07;;;;;;;6.43;5.50;;;;;;;;;;5119199;28;20200;-64
2023/06/16 03:03:37;;;;;;;8.73;5.23;;;;;;;;;;5121234;27;20195;-64
2023/06/16 03:06:07;;;;;;;6.07;5.43;;;;;;;;;;5118353;28;20218;-65
2023/06/16 03:08:35;;;;;;;6.60;4.63;;;;;;;;;;5122015;27;20238;-64
2023/06/16 03:11:04;;;;;;;6.53;5.10;;;;;;;;;;5117892;28;20664;-64
2023/06/16 03:13:32;;;;;;;5.60;4.90;;;;;;;;;;5123410;27;20539;-64
2023/06/16 03:16:02;;;;;;;10.33;5.57;;;;;;;;;;5119955;28;20227;-64
2023/06/16 03:18:31;;;;;;;5.23;4.73;;;;;;;;;;5121213;27;20620;-64
2023/06/16 03:21:01;;;;;;;7.07;6.10;;;;;;;;;;5121858;27;20571;-64
2023/06/16 03:23:29;;;;;;;7.00;4.90;;;;;;;;;;5122117;27;20230;-64
2023/06/16 03:25:58;;;;;;;6.67;4.97;;;;;;;;;;5120275;27;20223;-65
2023/06/16 03:28:26;;;;;;;7.33;5.20;;;;;;;;;;5123300;27;20199;-64
2023/06/16 03:30:54;;;;;;;9.07;5.47;;;;;;;;;;5117484;28;20204;-64
2023/06/16 03:33:22;;;;;;;9.23;4.83;;;;;;;;;;5117171;28;20217;-64
2023/06/16 03:35:50;;;;;;;5.87;5.10;;;;;;;;;;5120422;27;20304;-64
2023/06/16 03:38:22;;;;;;;7.63;5.23;;;;;;;;;;5119937;28;20588;-64
2023/06/16 03:40:50;;;;;;;6.83;5.50;;;;;;;;;;5121058;27;20290;-64
2023/06/16 03:43:18;;;;;;;5.97;5.17;;;;;;;;;;5119783;28;20251;-64
2023/06/16 03:45:46;;;;;;;7.07;5.30;;;;;;;;;;5119873;27;20303;-63
2023/06/16 03:48:15;;;;;;;7.20;5.70;;;;;;;;;;5121157;27;20204;-64
2023/06/16 03:50:43;;;;;;;6.50;4.87;;;;;;;;;;5117385;28;20649;-64
2023/06/16 03:53:12;;;;;;;8.47;5.03;;;;;;;;;;5120537;27;20322;-64
2023/06/16 03:55:45;;;;;;;7.97;5.87;;;;;;;;;;5117213;28;20587;-64
2023/06/16 03:58:15;;;;;;;7.07;5.83;;;;;;;;;;5120536;27;20264;-64
2023/06/16 04:00:43;;;;;;;8.37;5.50;;;;;;;;;;5118308;27;20225;-64
2023/06/16 04:03:11;;;;;;;6.17;5.53;;;;;;;;;;5121397;27;20210;-64
2023/06/16 04:05:40;;;;;;;6.57;5.07;;;;;;;;;;5119630;28;20240;-64
2023/06/16 04:08:08;;;;;;;6.47;5.20;;;;;;;;;;5124036;27;20200;-64
2023/06/16 04:10:39;;;;;;;9.10;5.07;;;;;;;;;;5119911;27;20207;-64
2023/06/16 04:13:09;;;;;;;5.93;5.33;;;;;;;;;;5125503;27;20206;-67
2023/06/16 04:15:37;;;;;;;13.03;5.57;;;;;;;;;;5139169;27;20267;-68
2023/06/16 04:18:05;;;;;;;8.63;5.53;;;;;;;;;;5140267;27;20204;-68
2023/06/16 04:20:33;;;;;;;5.57;4.93;;;;;;;;;;5140004;27;20660;-67
2023/06/16 04:23:06;;;;;;;5.93;5.27;;;;;;;;;;5139701;27;20203;-68
2023/06/16 04:25:37;;;;;;;6.03;5.13;;;;;;;;;;5139014;27;20234;-68
2023/06/16 04:28:07;;;;;;;5.97;5.30;;;;;;;;;;5119372;28;20279;-68
2023/06/16 04:30:36;;;;;;;7.87;5.30;;;;;;;;;;5119048;28;20235;-68
2023/06/16 04:33:05;;;;;;;5.87;5.10;;;;;;;;;;5117120;28;20625;-68
2023/06/16 04:35:33;;;;;;;6.57;5.27;;;;;;;;;;5118977;28;20275;-68
2023/06/16 04:38:04;;;;;;;7.60;5.13;;;;;;;;;;5119416;28;20581;-67
2023/06/16 04:40:32;;;;;;;5.63;5.07;;;;;;;;;;5119319;28;20210;-68
2023/06/16 04:43:00;;;;;;;7.27;5.70;;;;;;;;;;5128426;27;20206;-68
2023/06/16 04:45:28;;;;;;;5.50;5.07;;;;;;;;;;5139064;27;20252;-68
2023/06/16 04:47:58;;;;;;;10.03;5.77;;;;;;;;;;5139827;27;20340;-68
2023/06/16 04:50:26;;;;;;;7.63;5.50;;;;;;;;;;5139445;27;20643;-68
2023/06/16 04:52:54;;;;;;;5.87;5.33;;;;;;;;;;5139295;27;20252;-68
2023/06/16 04:55:22;;;;;;;7.37;5.30;;;;;;;;;;5139263;27;20231;-68
2023/06/16 04:57:51;;;;;;;6.27;5.60;;;;;;;;;;5139274;27;20288;-68
2023/06/16 05:00:19;;;;;;;6.23;5.30;;;;;;;;;;5139224;27;20289;-68
2023/06/16 05:02:47;;;;;;;9.17;5.40;;;;;;;;;;5139526;27;20242;-68
2023/06/16 05:05:17;;;;;;;7.07;5.17;;;;;;;;;;5138824;27;20285;-68
2023/06/16 05:07:46;;;;;;;5.77;5.10;;;;;;;;;;5130024;27;20233;-68
2023/06/16 05:10:14;;;;;;;5.77;5.27;;;;;;;;;;5118979;28;20269;-69
2023/06/16 05:12:42;;;;;;;8.47;5.90;;;;;;;;;;5118802;28;20211;-68
2023/06/16 05:15:10;;;;;;;7.63;5.57;;;;;;;;;;5118429;28;20211;-68
2023/06/16 05:17:39;;;;;;;6.03;5.43;;;;;;;;;;5118261;28;20792;-69
2023/06/16 05:20:08;;;;;;;8.53;5.50;;;;;;;;;;5118454;28;20311;-68
2023/06/16 05:22:37;;;;;;;8.27;5.17;;;;;;;;;;5118518;28;20347;-68
2023/06/16 05:25:06;;;;;;;9.23;6.00;;;;;;;;;;5118144;28;20211;-68
2023/06/16 05:27:35;;;;;;;5.60;4.87;;;;;;;;;;5118478;28;20203;-68
2023/06/16 05:30:04;;;;;;;8.63;5.63;;;;;;;;;;5115589;28;20211;-68
2023/06/16 05:32:32;;;;;;;5.93;5.23;;;;;;;;;;5105541;28;20201;-68
2023/06/16 05:35:00;;;;;;;6.33;5.43;;;;;;;;;;5118031;28;20660;-68
2023/06/16 05:37:29;;;;;;;6.60;5.57;;;;;;;;;;5118441;28;20224;-68
2023/06/16 05:39:58;;;;;;;7.03;5.70;;;;;;;;;;5118015;28;20233;-69
2023/06/16 05:42:26;;;;;;;8.70;5.00;;;;;;;;;;5118157;28;20208;-68
2023/06/16 05:44:55;;;;;;;6.07;5.20;;;;;;;;;;5117245;28;20196;-68
2023/06/16 05:47:23;;;;;;;5.57;5.07;;;;;;;;;;5118287;28;20283;-67
2023/06/16 05:49:51;;;;;;;7.50;5.50;;;;;;;;;;5117936;28;20214;-68
2023/06/16 05:52:19;;;;;;;8.43;5.57;;;;;;;;;;5118802;28;21228;-67
2023/06/16 05:54:47;;;;;;;6.97;5.47;;;;;;;;;;5114712;28;20234;-68
2023/06/16 05:57:17;;;;;;;7.07;5.70;;;;;;;;;;5120019;28;20213;-68
2023/06/16 05:59:48;;;;;;;7.87;5.77;;;;;;;;;;5117204;28;20286;-68
2023/06/16 06:02:19;;;;;;;6.17;5.43;;;;;;;;;;5118208;28;20563;-68
2023/06/16 06:04:48;;;;;;;6.97;6.10;;;;;;;;;;5116140;28;20660;-67
2023/06/16 06:07:18;;;;;;;7.20;5.77;;;;;;;;;;5119727;28;20226;-67
2023/06/16 06:09:51;;;;;;;7.10;6.40;;;;;;;;;;5117340;28;20224;-68
2023/06/16 06:12:21;;;;;;;9.33;6.07;;;;;;;;;;5117655;28;20206;-67
2023/06/16 06:14:49;;;;;;;7.40;6.20;;;;;;;;;;5114905;28;20200;-68
2023/06/16 06:17:17;;;;;;;9.53;6.83;;;;;;;;;;5120896;27;20766;-67
2023/06/16 06:19:46;;;;;;;9.77;6.93;;;;;;;;;;5129362;27;20200;-67
2023/06/16 06:22:14;;;;;;;8.30;5.40;;;;;;;;;;5132443;27;20295;-67
2023/06/16 06:24:42;;;;;;;8.03;6.37;;;;;;;;;;5131286;27;20198;-67
2023/06/16 06:27:12;;;;;;;10.07;6.10;;;;;;;;;;5131957;27;20724;-67
2023/06/16 06:29:42;;;;;;;7.87;6.60;;;;;;;;;;5129958;27;20264;-67
2023/06/16 06:32:12;;;;;;;8.83;6.33;;;;;;;;;;5131845;27;20221;-68
2023/06/16 06:34:40;;;;;;;7.47;5.67;;;;;;;;;;5130780;27;20231;-68
2023/06/16 06:37:08;;;;;;;8.03;5.87;;;;;;;;;;5131647;27;20659;-68
2023/06/16 06:39:36;;;;;;;10.40;5.67;;;;;;;;;;5132543;27;20675;-68
2023/06/16 06:42:05;;;;;;;10.03;6.40;;;;;;;;;;5128078;27;20569;-67
2023/06/16 06:44:33;;;;;;;10.80;6.50;;;;;;;;;;5130850;27;20199;-67
2023/06/16 06:47:03;;;;;;;9.40;6.07;;;;;;;;;;5129513;27;20222;-68
2023/06/16 06:49:31;;;;;;;8.60;6.53;;;;;;;;;;5121369;28;20203;-68
2023/06/16 06:51:59;;;;;;;7.30;5.93;;;;;;;;;;5122054;27;20240;-68
2023/06/16 06:54:28;;;;;;;8.27;6.03;;;;;;;;;;5122604;27;20233;-68
2023/06/16 06:56:56;;;;;;;10.00;6.27;;;;;;;;;;5123279;27;20717;-64
2023/06/16 06:59:24;;;;;;;9.67;5.43;;;;;;;;;;5132381;27;20199;-64
2023/06/16 07:01:52;;;;;;;8.07;5.70;;;;;;;;;;5130440;27;20201;-64
2023/06/16 07:04:25;;;;;;;9.60;6.27;;;;;;;;;;5130312;27;20198;-64
2023/06/16 07:06:53;;;;;;;7.47;6.00;;;;;;;;;;5128622;27;20214;-64
2023/06/16 07:09:21;;;;;;;6.40;5.83;;;;;;;;;;5130003;27;20212;-64
2023/06/16 07:11:58;;;;;;;9.13;6.03;;;;;;;;;;5130455;27;20564;-64
2023/06/16 07:14:29;;;;;;;13.77;5.63;;;;;;;;;;5129637;27;20231;-64
2023/06/16 07:16:57;;;;;;;8.43;6.00;;;;;;;;;;5130092;27;20226;-65
2023/06/16 07:19:27;;;;;;;8.70;6.03;;;;;;;;;;5131560;27;20713;-63
2023/06/16 07:21:56;;;;;;;11.13;5.73;;;;;;;;;;5130605;27;20193;-63
2023/06/16 07:24:25;;;;;;;9.90;5.30;;;;;;;;;;5130032;27;20220;-64
2023/06/16 07:26:53;;;;;;;7.77;5.30;;;;;;;;;;5130888;27;20695;-64
2023/06/16 07:29:22;;;;;;;7.33;5.17;;;;;;;;;;5130321;27;20228;-64
2023/06/16 07:31:50;;;;;;;6.93;6.27;;;;;;;;;;5127871;27;20225;-62
2023/06/16 07:34:19;;;;;;;7.87;5.70;;;;;;;;;;5127037;27;20259;-63
2023/06/16 07:36:48;;;;;;;8.63;5.33;;;;;;;;;;5130000;27;20557;-63
2023/06/16 07:39:17;;;;;;;8.13;5.20;;;;;;;;;;5131101;27;20255;-61
2023/06/16 07:41:45;;;;;;;10.43;6.00;;;;;;;;;;5116949;28;20652;-63
2023/06/16 07:44:13;;;;;;;7.93;5.30;;;;;;;;;;5121485;27;20226;-63
2023/06/16 07:46:45;;;;;;;5.33;4.73;;;;;;;;;;5119913;28;20226;-63
2023/06/16 07:49:13;;;;;;;5.40;4.90;;;;;;;;;;5120194;28;20204;-63
2023/06/16 07:51:42;;;;;;;7.50;5.67;;;;;;;;;;5120199;28;20209;-64
2023/06/16 07:54:12;;;;;;;6.13;5.30;;;;;;;;;;5119812;28;20256;-63
2023/06/16 07:56:40;;;;;;;7.83;5.30;;;;;;;;;;5121601;27;20220;-64
2023/06/16 07:59:08;;;;;;;8.03;5.23;;;;;;;;;;5119969;27;20219;-64
2023/06/16 08:01:37;;;;;;;7.03;5.03;;;;;;;;;;5120282;27;20562;-64
2023/06/16 08:04:05;;;;;;;7.00;5.83;;;;;;;;;;5119407;28;20659;-64
2023/06/16 08:06:33;;;;;;;7.43;5.70;;;;;;;;;;5119425;27;20223;-64
2023/06/16 08:09:02;;;;;;;8.63;5.60;;;;;;;;;;5118587;28;20240;-63
2023/06/16 08:11:32;;;;;;;5.37;4.87;;;;;;;;;;5120647;27;20664;-63
2023/06/16 08:14:00;;;;;;;7.07;5.10;;;;;;;;;;5121557;27;20663;-63
2023/06/16 08:16:28;;;;;;;8.47;5.43;;;;;;;;;;5114486;28;20227;-63
2023/06/16 08:18:57;;;;;;;5.97;5.40;;;;;;;;;;5118602;28;20712;-63
2023/06/16 08:21:26;;;;;;;5.50;4.93;;;;;;;;;;5119634;27;20280;-63
2023/06/16 08:23:54;;;;;;;8.47;4.90;;;;;;;;;;5120024;27;20286;-63
2023/06/16 08:26:22;;;;;;;6.00;5.40;;;;;;;;;;5120075;27;20223;-63
2023/06/16 08:28:52;;;;;;;6.37;4.60;;;;;;;;;;5118855;27;20194;-62
2023/06/16 08:31:20;;;;;;;5.23;4.37;;;;;;;;;;5119138;27;20205;-64
2023/06/16 08:33:50;;;;;;;5.07;4.40;;;;;;;;;;5115055;27;20198;-64
2023/06/16 08:36:20;;;;;;;5.90;4.30;;;;;;;;;;5123077;27;20604;-64
2023/06/16 08:38:49;;;;;;;6.00;5.10;;;;;;;;;;5118162;27;20231;-64
2023/06/16 08:41:17;;;;;;;5.53;4.20;;;;;;;;;;5119427;28;20198;-64
2023/06/16 08:43:49;;;;;;;6.47;4.70;;;;;;;;;;5118402;28;20203;-64
2023/06/16 08:46:19;;;;;;;5.43;4.93;;;;;;;;;;5124885;27;20219;-63
2023/06/16 08:48:47;;;;;;;6.00;4.50;;;;;;;;;;5127717;27;20223;-63
2023/06/16 08:51:16;;;;;;;5.77;5.10;;;;;;;;;;5122269;27;20250;-63
2023/06/16 08:53:48;;;;;;;6.00;4.47;;;;;;;;;;5118084;28;20273;-63
2023/06/16 08:56:19;;;;;;;4.43;3.73;;;;;;;;;;5118795;27;20225;-64
2023/06/16 08:58:48;;;;;;;7.27;5.20;;;;;;;;;;5115210;28;20225;-63
2023/06/16 09:01:18;;;;;;;5.53;4.50;;;;;;;;;;5119416;27;20277;-64
2023/06/16 09:03:47;;;;;;;9.03;5.83;;;;;;;;;;5120306;27;20650;-64
2023/06/16 09:06:25;;;;;;;6.47;5.10;;;;;;;;;;5118253;28;20219;-64
2023/06/16 09:08:56;;;;;;;7.73;5.30;;;;;;;;;;5117390;28;20195;-63
2023/06/16 09:11:25;;;;;;;4.87;4.37;;;;;;;;;;5115666;28;20288;-63
2023/06/16 09:14:10;;;;;;;4.80;4.40;;;;;;;;;;5119924;27;20201;-64
2023/06/16 09:16:55;;;;;;;6.63;4.23;;;;;;;;;;5115175;27;20219;-64
2023/06/16 09:19:23;;;;;;;6.33;4.30;;;;;;;;;;5115600;27;20230;-65
2023/06/16 09:21:54;;;;;;;5.50;4.13;;;;;;;;;;5119821;27;20194;-65
2023/06/16 09:24:35;;;;;;;5.00;3.90;;;;;;;;;;5115900;28;20197;-64
2023/06/16 09:27:04;;;;;;;4.67;4.00;;;;;;;;;;5120533;27;20231;-64
2023/06/16 09:29:32;;;;;;;6.77;4.00;;;;;;;;;;5122162;27;20279;-64
2023/06/16 09:32:09;;;;;;;5.00;3.90;;;;;;;;;;5116715;27;20287;-64
2023/06/16 09:34:39;;;;;;;6.17;4.03;;;;;;;;;;5114262;28;20637;-65
2023/06/16 09:37:07;;;;;;;8.53;3.83;;;;;;;;;;5124451;27;20243;-64
2023/06/16 09:39:35;;;;;;;4.57;4.07;;;;;;;;;;5114758;28;20271;-64
2023/06/16 09:42:03;;;;;;;5.47;3.40;;;;;;;;;;5121241;27;20935;-64
2023/06/16 09:44:32;;;;;;;6.27;3.90;;;;;;;;;;5118656;27;20209;-64
2023/06/16 09:47:01;;;;;;;3.63;3.30;;;;;;;;;;5121028;28;20246;-64
2023/06/16 09:49:32;;;;;;;4.20;3.47;;;;;;;;;;5127923;28;20195;-64
2023/06/16 09:52:01;;;;;;;6.60;3.53;;;;;;;;;;5127463;27;20282;-64
2023/06/16 09:54:29;;;;;;;6.40;4.00;;;;;;;;;;5131408;27;20761;-64
2023/06/16 09:56:59;;;;;;;4.53;3.70;;;;;;;;;;5118500;27;20227;-65
2023/06/16 09:59:27;;;;;;;5.23;3.33;;;;;;;;;;5112069;28;20786;-64
2023/06/16 10:01:58;;;;;;;6.13;3.77;;;;;;;;;;5126146;27;20199;-64
2023/06/16 10:04:28;;;;;;;4.93;3.63;;;;;;;;;;5124425;27;20655;-63
2023/06/16 10:07:00;;;;;;;6.83;3.97;;;;;;;;;;5129623;27;20217;-65
2023/06/16 10:09:33;;;;;;;6.63;3.63;;;;;;;;;;5119944;28;20315;-65
2023/06/16 10:12:02;;;;;;;6.20;3.97;;;;;;;;;;5116884;27;20202;-65
2023/06/16 10:14:31;;;;;;;6.33;3.70;;;;;;;;;;5120287;27;20644;-64
2023/06/16 10:17:03;;;;;;;5.37;3.73;;;;;;;;;;5121521;28;20645;-65
2023/06/16 10:19:33;;;;;;;5.10;3.57;;;;;;;;;;5122181;27;20586;-64
2023/06/16 10:22:03;;;;;;;4.93;3.40;;;;;;;;;;5120434;27;20673;-65
2023/06/16 10:24:32;;;;;;;4.13;3.73;;;;;;;;;;5124019;27;20202;-65
2023/06/16 10:27:00;;;;;;;4.27;3.67;;;;;;;;;;5121641;27;20215;-64
2023/06/16 10:29:28;;;;;;;4.30;3.90;;;;;;;;;;5122146;27;20193;-64
2023/06/16 10:32:03;;;;;;;5.73;3.83;;;;;;;;;;5119648;27;20207;-64
2023/06/16 10:34:31;;;;;;;7.23;4.33;;;;;;;;;;5122026;27;20205;-64
2023/06/16 10:37:00;;;;;;;6.83;3.40;;;;;;;;;;5120706;28;20217;-64
2023/06/16 10:39:30;;;;;;;3.80;3.50;;;;;;;;;;5108097;28;20230;-62
2023/06/16 10:41:59;;;;;;;3.63;2.63;;;;;;;;;;5114998;28;20294;-63
2023/06/16 10:44:29;;;;;;;4.10;3.10;;;;;;;;;;5121243;28;20670;-62
2023/06/16 10:47:15;;;;;;;3.50;3.20;;;;;;;;;;5121563;28;20225;-62
2023/06/16 10:49:44;;;;;;;4.50;3.50;;;;;;;;;;5121517;28;20658;-62
2023/06/16 10:52:16;;;;;;;3.87;3.57;;;;;;;;;;5121251;28;20235;-63
2023/06/16 10:54:48;;;;;;;5.57;3.93;;;;;;;;;;5120806;28;20240;-62
2023/06/16 10:57:16;;;;;;;4.10;3.57;;;;;;;;;;5120966;28;20233;-63
2023/06/16 10:59:54;;;;;;;3.93;3.20;;;;;;;;;;5118169;28;20236;-65
2023/06/16 11:02:23;;;;;;;3.90;2.80;;;;;;;;;;5113146;28;20631;-64
2023/06/16 11:05:14;;;;;;;3.20;2.90;;;;;;;;;;5116959;27;20212;-64
2023/06/16 11:07:43;;;;;;;3.43;3.03;;;;;;;;;;5119376;27;20203;-64
2023/06/16 11:10:17;;;;;;;3.33;2.80;;;;;;;;;;5117951;28;20226;-64
2023/06/16 11:12:52;;;;;;;3.37;3.17;;;;;;;;;;5123824;27;20651;-62
2023/06/16 11:15:27;;;;;;;3.97;3.40;;;;;;;;;;5118348;27;20246;-63
2023/06/16 11:17:56;;;;;;;4.03;3.50;;;;;;;;;;5121480;27;20286;-62
2023/06/16 11:20:26;;;;;;;4.63;3.17;;;;;;;;;;5120161;28;20224;-63
2023/06/16 11:22:54;;;;;;;3.73;2.77;;;;;;;;;;5117722;28;20204;-64
2023/06/16 11:25:23;;;;;;;4.50;3.50;;;;;;;;;;5121359;27;20727;-64
2023/06/16 11:27:51;;;;;;;4.57;3.37;;;;;;;;;;5120719;28;20204;-63
2023/06/16 11:30:20;;;;;;;4.47;3.10;;;;;;;;;;5118402;28;20632;-63
2023/06/16 11:32:49;;;;;;;3.30;3.00;;;;;;;;;;5104393;28;20205;-63
2023/06/16 11:35:17;;;;;;;4.97;3.77;;;;;;;;;;5121468;27;21646;-63
2023/06/16 11:37:47;;;;;;;5.73;3.17;;;;;;;;;;5115518;27;20201;-64
2023/06/16 11:40:16;;;;;;;4.47;3.50;;;;;;;;;;5120478;27;20223;-64
2023/06/16 11:42:54;;;;;;;4.17;3.63;;;;;;;;;;5116760;28;20239;-64
2023/06/16 11:45:22;;;;;;;5.00;3.17;;;;;;;;;;5119422;28;20735;-64
2023/06/16 11:47:51;;;;;;;4.00;3.60;;;;;;;;;;5107163;28;20203;-65
2023/06/16 11:50:19;;;;;;;3.87;3.23;;;;;;;;;;5127664;27;20206;-63
2023/06/16 11:52:49;;;;;;;4.63;3.10;;;;;;;;;;5129790;27;20286;-64
2023/06/16 11:55:17;;;;;;;4.10;3.33;;;;;;;;;;5122300;27;20229;-63
2023/06/16 11:57:46;;;;;;;4.40;3.30;;;;;;;;;;5121838;27;20204;-63
2023/06/16 12:00:17;;;;;;;5.97;3.10;;;;;;;;;;5121511;27;20234;-63
2023/06/16 12:02:47;;;;;;;4.47;3.13;;;;;;;;;;5135400;27;20289;-64
2023/06/16 12:05:18;;;;;;;6.63;3.80;;;;;;;;;;5119218;27;20243;-63
2023/06/16 12:07:47;;;;;;;3.13;2.87;;;;;;;;;;5121838;27;20198;-62
2023/06/16 12:10:15;;;;;;;4.13;3.47;;;;;;;;;;5127586;27;20194;-63
2023/06/16 12:12:45;;;;;;;5.10;2.97;;;;;;;;;;5119037;28;20200;-62
2023/06/16 12:15:14;;;;;;;3.67;3.30;;;;;;;;;;5114335;28;20217;-62
2023/06/16 12:17:44;;;;;;;3.83;3.20;;;;;;;;;;5118848;28;20205;-63
2023/06/16 12:20:13;;;;;;;5.07;3.27;;;;;;;;;;5106025;28;20226;-63
2023/06/16 12:22:41;;;;;;;3.50;3.20;;;;;;;;;;5113553;28;20243;-63
2023/06/16 12:25:11;;;;;;;4.43;3.40;;;;;;;;;;5117256;28;20287;-63
2023/06/16 12:27:39;;;;;;;3.90;3.50;;;;;;;;;;5106656;28;20197;-63
2023/06/16 12:30:08;;;;;;;4.10;3.20;;;;;;;;;;5118913;28;20571;-65
2023/06/16 12:32:36;;;;;;;4.23;3.13;;;;;;;;;;5107779;27;20292;-64
2023/06/16 12:35:06;;;;;;;3.30;2.97;;;;;;;;;;5139536;27;20206;-64
2023/06/16 12:37:34;;;;;;;4.87;2.97;;;;;;;;;;5125508;27;20263;-64
2023/06/16 12:40:11;;;;;;;4.00;3.43;;;;;;;;;;5117991;27;20210;-65
2023/06/16 12:42:41;;;;;;;3.23;3.03;;;;;;;;;;5117772;27;20227;-67
2023/06/16 12:45:09;;;;;;;4.90;3.23;;;;;;;;;;5120802;27;20199;-67
2023/06/16 12:47:41;;;;;;;2.93;2.73;;;;;;;;;;5116382;28;20640;-67
2023/06/16 12:50:11;;;;;;;4.27;3.07;;;;;;;;;;5119084;28;20203;-67
2023/06/16 12:52:39;;;;;;;3.57;3.27;;;;;;;;;;5119145;28;20214;-66
2023/06/16 12:55:08;;;;;;;4.43;3.13;;;;;;;;;;5118569;28;20322;-68
2023/06/16 12:57:36;;;;;;;3.00;2.80;;;;;;;;;;5132871;27;20206;-67
2023/06/16 13:00:07;;;;;;;4.00;3.05;;;;;;;;;;5138936;27;20633;-67
2023/06/16 13:02:37;;;;;;;7.30;2.90;;;;;;;;;;5139423;27;20206;-67
2023/06/16 13:05:09;;;;;;;3.75;3.33;;;;;;;;;;5139152;27;20206;-67
2023/06/16 13:07:38;;;;;;;3.67;3.08;;;;;;;;;;5131468;27;20213;-67
2023/06/16 13:10:07;;;;;;;3.15;2.90;;;;;;;;;;5114998;28;20207;-67
2023/06/16 13:12:35;;;;;;;5.10;3.28;;;;;;;;;;5118382;28;20360;-67
2023/06/16 13:15:03;;;;;;;3.58;3.20;;;;;;;;;;5118108;28;20211;-66
2023/06/16 13:17:31;;;;;;;3.80;3.40;;;;;;;;;;5118548;28;20231;-67
2023/06/16 13:20:00;;;;;;;3.67;3.00;;;;;;;;;;5110699;28;20199;-66
2023/06/16 13:22:28;;;;;;;3.00;2.80;;;;;;;;;;5118227;28;20715;-67
2023/06/16 13:24:58;;;;;;;3.28;2.80;;;;;;;;;;5117876;28;20234;-67
2023/06/16 13:27:26;;;;;;;3.80;2.85;;;;;;;;;;5118220;28;20287;-66
2023/06/16 13:29:54;;;;;;;4.28;3.05;;;;;;;;;;5118149;28;20199;-66
2023/06/16 13:32:22;;;;;;;3.58;3.25;;;;;;;;;;5113902;28;20200;-66
2023/06/16 13:34:51;;;;;;;3.90;2.95;;;;;;;;;;5117778;27;20241;-66
2023/06/16 13:37:19;;;;;;;4.72;2.85;;;;;;;;;;5126795;27;20201;-66
2023/06/16 13:39:48;;;;;;;3.65;3.00;;;;;;;;;;5128773;27;20858;-66
2023/06/16 13:42:17;;;;;;;5.65;3.00;;;;;;;;;;5120383;27;20692;-66
2023/06/16 13:44:45;;;;;;;3.05;2.85;;;;;;;;;;5118653;28;20254;-66
2023/06/16 13:47:26;;;;;;;3.33;2.78;;;;;;;;;;5119857;28;20223;-66
2023/06/16 13:49:57;;;;;;;2.92;2.72;;;;;;;;;;5118867;28;20570;-66
2023/06/16 13:52:26;;;;;;;3.25;2.97;;;;;;;;;;5117920;28;20279;-66
2023/06/16 13:54:54;;;;;;;4.43;3.08;;;;;;;;;;5118367;28;20239;-66
2023/06/16 13:57:24;;;;;;;3.95;3.10;;;;;;;;;;5118888;28;20205;-66
2023/06/16 13:59:52;;;;;;;3.50;2.95;;;;;;;;;;5118102;28;20675;-66
2023/06/16 14:02:20;;;;;;;4.30;3.25;;;;;;;;;;5116514;28;20217;-66
2023/06/16 14:04:49;;;;;;;2.85;2.53;;;;;;;;;;5128822;28;20547;-66
2023/06/16 14:07:17;;;;;;;3.15;2.85;;;;;;;;;;5123734;28;20210;-66
2023/06/16 14:09:45;;;;;;;2.92;2.72;;;;;;;;;;5128298;28;20199;-68
2023/06/16 14:12:13;;;;;;;3.10;2.80;;;;;;;;;;5126064;28;20193;-68
2023/06/16 14:14:43;;;;;;;3.42;3.20;;;;;;;;;;5122248;27;20204;-68
2023/06/16 14:17:11;;;;;;;5.68;2.92;;;;;;;;;;5107157;28;20225;-67
2023/06/16 14:19:40;;;;;;;3.40;3.10;;;;;;;;;;5105675;28;20203;-67
2023/06/16 14:22:08;;;;;;;3.20;2.90;;;;;;;;;;5110826;28;20587;-65
2023/06/16 14:24:36;;;;;;;4.40;2.80;;;;;;;;;;5128966;28;20196;-66
2023/06/16 14:27:05;;;;;;;3.20;2.90;;;;;;;;;;5127182;28;20220;-65
2023/06/16 14:29:36;;;;;;;3.15;2.90;;;;;;;;;;5126302;27;20535;-70
2023/06/16 14:32:06;;;;;;;2.80;2.60;;;;;;;;;;5128579;27;20718;-70
2023/06/16 14:34:34;;;;;;;5.25;3.13;;;;;;;;;;5129208;28;20212;-70
2023/06/16 14:37:04;;;;;;;3.65;2.97;;;;;;;;;;5128356;27;20225;-72
2023/06/16 14:39:32;;;;;;;4.18;3.53;;;;;;;;;;5130605;27;20197;-73
2023/06/16 14:42:00;;;;;;;3.35;3.05;;;;;;;;;;5128573;27;20308;-70
2023/06/16 14:44:29;;;;;;;3.13;2.88;;;;;;;;;;5130545;27;20288;-69
2023/06/16 14:46:57;;;;;;;2.85;2.65;;;;;;;;;;5132133;27;20220;-72
2023/06/16 14:49:27;;;;;;;3.78;2.97;;;;;;;;;;5127188;27;20559;-71
2023/06/16 14:51:55;;;;;;;3.25;2.95;;;;;;;;;;5132337;27;20192;-71
2023/06/16 14:54:24;;;;;;;3.25;2.92;;;;;;;;;;5130516;27;20716;-71
2023/06/16 14:56:53;;;;;;;3.60;3.33;;;;;;;;;;5130150;27;20229;-71